KSEG

Penn Valley Airport

Selinsgrove, Pennsylvania, USA
METAR KSEG 200853Z AUTO 00000KT 10SM CLR 14/12 A2993 RMK AO2 SLP132 T01440122 53003
Observed Flight Rules
Jun-20 @ 08:53 UTC (17 minutes ago) Visual Flight Rules
Visibility Clouds
10 miles
  • Clear skies
Temperatures Readings
Current 14°C / 57°F
Dewpoint 12°C / 54°F
Humidity 88%
Altimeter 29.93" Hg
Pressure 1013.2 hPa
Elevation 134
METAR KSEG 200853Z AUTO 00000KT 10SM CLR 14/12 A2993 RMK AO2 SLP132 T01440122 53003
Observed Flight Rules
Jun-20 @ 08:53 UTC
(17 minutes ago)
VFR
Clouds
  • Clear skies
Temperature Dewpoint
14°C / 57°F 12°C / 54°F
Humidity Altimeter Pressure
88% 29.93" Hg 1013.2 hPa